Chain of Rocks, Missouri
Current Conditions -  °F | °C
As of 8:54 PM on Tuesday 25 Nov 2014 (Local Time) from KSET Reporting Station
Clear Clear  
Wind Chill: -2°   Ceiling: Unl
Heat Index: -2°   Visibility: 10mi
Dew Point: -3°   Wind: 3mph
Humidity: 89%   Direction: 80°E
Pressure: 30.18"   Gusts: NA
Location:  38.9362°N, 90.7728°W
Report Text: KSET 260254Z AUTO 08003KT 10SM CLR M02/M03 A3018 RMK AO2 SLP223 T10171033 50003
Loading
Personal Weather Stations






























Interactive Weather Map New forecast layout! Learn more

10-Day Weather Forecast

Advertisements
Track Severe Weather on mobile